createdAt,value
2023-04-11T00:00:30.693Z,18.10
2023-04-11T00:03:02.808Z,18.10
2023-04-11T00:05:33.674Z,18.10
2023-04-11T00:08:03.574Z,18.10
2023-04-11T00:10:36.546Z,18.10
2023-04-11T00:13:10.347Z,18.10
2023-04-11T00:15:42.428Z,18.10
2023-04-11T00:18:15.922Z,18.10
2023-04-11T00:20:46.475Z,18.10
2023-04-11T00:23:14.841Z,18.10
2023-04-11T00:25:43.104Z,18.10
2023-04-11T00:28:14.870Z,18.10
2023-04-11T00:30:45.164Z,18.10
2023-04-11T00:33:14.441Z,18.10
2023-04-11T00:35:44.882Z,18.00
2023-04-11T00:38:15.597Z,18.00
2023-04-11T00:40:46.234Z,18.10
2023-04-11T00:43:18.225Z,18.00
2023-04-11T00:45:52.733Z,18.00
2023-04-11T00:48:25.222Z,18.00
2023-04-11T00:50:52.450Z,18.10
2023-04-11T00:53:22.767Z,18.00
2023-04-11T00:55:54.377Z,18.00
2023-04-11T00:58:26.672Z,18.00
2023-04-11T01:00:55.284Z,18.00
2023-04-11T01:03:27.360Z,18.00
2023-04-11T01:05:55.914Z,18.00
2023-04-11T01:08:26.852Z,18.00
2023-04-11T01:11:02.025Z,18.00
2023-04-11T01:13:31.553Z,18.00
2023-04-11T01:16:03.508Z,18.00
2023-04-11T01:18:31.297Z,18.00
2023-04-11T01:21:03.107Z,18.00
2023-04-11T01:23:34.768Z,18.00
2023-04-11T01:26:01.932Z,18.00
2023-04-11T01:28:29.817Z,18.00
2023-04-11T01:31:01.373Z,18.00
2023-04-11T01:33:33.893Z,17.90
2023-04-11T01:36:03.154Z,18.00
2023-04-11T01:38:34.544Z,18.00
2023-04-11T01:41:03.263Z,17.90
2023-04-11T01:43:33.209Z,17.90
2023-04-11T01:46:02.547Z,18.00
2023-04-11T01:48:33.908Z,17.90
2023-04-11T01:51:04.455Z,17.90
2023-04-11T01:53:36.353Z,17.90
2023-04-11T01:56:07.187Z,17.90
2023-04-11T01:58:39.259Z,17.90
2023-04-11T02:01:09.671Z,17.90
2023-04-11T02:03:42.005Z,17.90
2023-04-11T02:06:12.383Z,17.90
2023-04-11T02:08:44.058Z,17.90
2023-04-11T02:11:16.387Z,18.00
2023-04-11T02:13:49.180Z,17.90
2023-04-11T02:16:20.870Z,17.90
2023-04-11T02:18:52.186Z,17.90
2023-04-11T02:21:23.255Z,17.90
2023-04-11T02:23:54.934Z,17.90
2023-04-11T02:26:27.104Z,17.90
2023-04-11T02:28:58.624Z,17.90
2023-04-11T02:31:28.491Z,17.90
2023-04-11T02:34:00.548Z,17.90
2023-04-11T02:36:31.036Z,17.90
2023-04-11T02:39:01.266Z,17.80
2023-04-11T02:41:32.098Z,17.90
2023-04-11T02:44:02.528Z,17.80
2023-04-11T02:46:31.499Z,17.90
2023-04-11T02:49:03.276Z,17.80
2023-04-11T02:51:35.833Z,17.90
2023-04-11T02:54:08.156Z,17.80
2023-04-11T02:56:41.770Z,17.80
2023-04-11T02:59:12.986Z,17.80
2023-04-11T03:01:41.696Z,17.80
2023-04-11T03:04:10.848Z,17.80
2023-04-11T03:06:41.537Z,17.80
2023-04-11T03:09:13.194Z,17.90
2023-04-11T03:11:46.904Z,17.80
2023-04-11T03:14:18.881Z,17.80
2023-04-11T03:16:47.985Z,17.80
2023-04-11T03:19:18.341Z,17.80
2023-04-11T03:21:47.099Z,17.80
2023-04-11T03:24:15.827Z,17.80
2023-04-11T03:26:42.818Z,17.80
2023-04-11T03:29:17.159Z,17.80
2023-04-11T03:31:53.610Z,17.80
2023-04-11T03:34:22.919Z,17.70
2023-04-11T03:36:54.479Z,17.70
2023-04-11T03:39:28.125Z,17.80
2023-04-11T03:41:58.848Z,17.80
2023-04-11T03:44:29.929Z,17.70
2023-04-11T03:47:01.549Z,17.70
2023-04-11T03:49:32.400Z,17.70
2023-04-11T03:52:13.869Z,17.70
2023-04-11T03:54:42.114Z,17.70
2023-04-11T03:57:12.663Z,17.70
2023-04-11T03:59:42.116Z,17.70
2023-04-11T04:02:10.294Z,17.70
2023-04-11T04:04:41.525Z,17.70
2023-04-11T04:07:12.897Z,17.70
2023-04-11T04:09:43.791Z,17.70
2023-04-11T04:12:14.957Z,17.70
2023-04-11T04:14:45.685Z,17.70
2023-04-11T04:17:19.454Z,17.70
2023-04-11T04:19:58.450Z,17.70
2023-04-11T04:22:29.005Z,17.70
2023-04-11T04:24:59.122Z,17.70
2023-04-11T04:27:29.001Z,17.70
2023-04-11T04:30:03.379Z,17.70
2023-04-11T04:32:31.473Z,17.70
2023-04-11T04:35:01.520Z,17.70
2023-04-11T04:37:30.854Z,17.70
2023-04-11T04:43:18.627Z,17.70
2023-04-11T04:45:47.849Z,17.60
2023-04-11T04:48:22.544Z,17.60
2023-04-11T04:50:53.473Z,17.60
2023-04-11T04:53:23.522Z,17.60
2023-04-11T04:55:53.586Z,17.60
2023-04-11T04:58:24.114Z,17.60
2023-04-11T05:01:00.743Z,17.60
2023-04-11T05:03:29.219Z,17.60
2023-04-11T05:06:01.808Z,17.60
2023-04-11T05:08:31.034Z,17.60
2023-04-11T05:11:01.121Z,17.60
2023-04-11T05:13:30.692Z,17.60
2023-04-11T05:16:03.830Z,17.60
2023-04-11T05:18:34.073Z,17.60
2023-04-11T05:21:04.952Z,17.60
2023-04-11T05:23:37.181Z,17.60
2023-04-11T05:26:08.695Z,17.60
2023-04-11T05:28:37.967Z,17.60
2023-04-11T05:31:08.710Z,17.50
2023-04-11T05:33:38.467Z,17.60
2023-04-11T05:36:10.945Z,17.50
2023-04-11T05:38:43.162Z,17.60
2023-04-11T05:41:15.321Z,17.50
2023-04-11T05:43:47.060Z,17.60
2023-04-11T05:46:18.264Z,17.50
2023-04-11T05:48:47.119Z,17.50
2023-04-11T05:51:13.878Z,17.50
2023-04-11T05:53:46.950Z,17.50
2023-04-11T05:56:19.667Z,17.60
2023-04-11T05:58:50.967Z,17.60
2023-04-11T06:01:26.784Z,17.60
2023-04-11T06:03:57.633Z,17.60
2023-04-11T06:06:28.242Z,17.60
2023-04-11T06:08:57.487Z,17.50
2023-04-11T06:11:31.205Z,17.60
2023-04-11T06:14:02.309Z,17.50
2023-04-11T06:16:34.248Z,17.60
2023-04-11T06:19:05.831Z,17.60
2023-04-11T06:21:38.381Z,17.60
2023-04-11T06:24:11.756Z,17.50
2023-04-11T06:26:52.704Z,17.60
2023-04-11T06:29:26.251Z,17.60
2023-04-11T06:31:55.426Z,17.60
2023-04-11T06:34:30.262Z,17.60
2023-04-11T06:37:01.693Z,17.60
2023-04-11T06:39:33.588Z,17.60
2023-04-11T06:42:04.239Z,17.60
2023-04-11T06:44:33.195Z,17.60
2023-04-11T06:47:05.281Z,17.60
2023-04-11T06:49:37.533Z,17.60
2023-04-11T06:52:09.563Z,17.60
2023-04-11T06:54:37.802Z,17.60
2023-04-11T06:57:09.114Z,17.70
2023-04-11T06:59:41.766Z,17.70
2023-04-11T07:02:15.565Z,17.80
2023-04-11T07:04:46.432Z,17.90
2023-04-11T07:07:14.647Z,18.00
2023-04-11T07:09:45.914Z,18.10
2023-04-11T07:12:16.226Z,18.20
2023-04-11T07:14:45.633Z,18.30
2023-04-11T07:17:15.394Z,18.30
2023-04-11T07:19:46.712Z,18.40
2023-04-11T07:22:18.195Z,18.50
2023-04-11T07:24:53.838Z,18.60
2023-04-11T07:27:23.834Z,18.70
2023-04-11T07:29:52.953Z,18.80
2023-04-11T07:32:23.019Z,18.80
2023-04-11T07:34:59.500Z,18.90
2023-04-11T07:37:34.677Z,19.00
2023-04-11T07:40:11.388Z,19.00
2023-04-11T07:42:39.970Z,19.10
2023-04-11T07:45:10.728Z,19.20
2023-04-11T07:47:39.096Z,19.20
2023-04-11T07:50:14.354Z,19.30
2023-04-11T07:52:46.033Z,19.30
2023-04-11T07:55:14.900Z,19.40
2023-04-11T07:57:45.175Z,19.40
2023-04-11T08:00:29.324Z,19.50
2023-04-11T08:03:16.105Z,19.50
2023-04-11T08:05:50.436Z,19.50
2023-04-11T08:08:23.200Z,19.50
2023-04-11T08:10:54.701Z,19.50
2023-04-11T08:13:26.195Z,19.60
2023-04-11T08:15:59.012Z,19.60
2023-04-11T08:18:32.963Z,19.70
2023-04-11T08:21:02.074Z,19.70
2023-04-11T08:23:36.481Z,19.70
2023-04-11T08:28:46.397Z,19.80
2023-04-11T08:31:18.374Z,19.80
2023-04-11T08:33:46.652Z,19.90
2023-04-11T08:36:15.454Z,19.90
2023-04-11T08:38:45.094Z,19.90
2023-04-11T08:41:17.193Z,19.90
2023-04-11T08:43:48.399Z,20.00
2023-04-11T08:46:21.318Z,19.90
2023-04-11T08:48:54.053Z,20.00
2023-04-11T08:51:30.089Z,20.00
2023-04-11T08:54:21.658Z,20.10
2023-04-11T08:56:53.271Z,20.10
2023-04-11T08:59:24.107Z,20.20
2023-04-11T09:02:05.358Z,20.20
2023-04-11T09:04:45.947Z,20.20
2023-04-11T09:07:27.080Z,20.20
2023-04-11T09:09:58.527Z,20.20
2023-04-11T09:12:31.356Z,20.30
2023-04-11T09:15:19.778Z,20.30
2023-04-11T09:17:47.981Z,20.30
2023-04-11T09:20:33.588Z,20.30
2023-04-11T09:23:03.189Z,20.30
2023-04-11T09:25:32.035Z,20.40
2023-04-11T09:28:14.039Z,20.40
2023-04-11T09:30:54.106Z,20.30
2023-04-11T09:33:23.327Z,20.20
2023-04-11T09:35:59.405Z,20.10
2023-04-11T09:38:37.437Z,20.10
2023-04-11T09:41:07.283Z,20.10
2023-04-11T09:43:54.713Z,20.00
2023-04-11T09:46:27.943Z,20.00
2023-04-11T09:48:59.963Z,19.90
2023-04-11T09:54:28.300Z,19.90
2023-04-11T09:56:57.097Z,19.90
2023-04-11T09:59:33.736Z,19.90
2023-04-11T10:02:03.605Z,19.90
2023-04-11T10:04:34.840Z,19.90
2023-04-11T10:07:20.928Z,19.80
2023-04-11T10:09:50.454Z,19.80
2023-04-11T10:12:32.341Z,19.80
2023-04-11T10:15:11.439Z,19.80
2023-04-11T10:17:44.926Z,19.70
2023-04-11T10:20:31.592Z,19.80
2023-04-11T10:23:12.787Z,19.80
2023-04-11T10:26:16.467Z,19.70
2023-04-11T10:28:46.032Z,19.70
2023-04-11T10:31:20.153Z,19.60
2023-04-11T10:34:15.563Z,19.60
2023-04-11T10:37:14.699Z,19.60
2023-04-11T10:40:12.596Z,19.60
2023-04-11T10:42:47.881Z,19.60
2023-04-11T10:45:30.085Z,19.50
2023-04-11T10:48:14.511Z,19.50
2023-04-11T10:50:49.853Z,19.50
2023-04-11T10:53:38.038Z,19.50
2023-04-11T10:56:11.390Z,19.40
2023-04-11T10:58:40.497Z,19.40
2023-04-11T11:01:32.270Z,19.40
2023-04-11T11:04:21.156Z,19.40
2023-04-11T11:06:57.639Z,19.50
2023-04-11T11:09:30.984Z,19.50
2023-04-11T11:12:21.191Z,19.60
2023-04-11T11:14:57.146Z,19.60
2023-04-11T11:17:28.015Z,19.70
2023-04-11T11:19:59.335Z,19.80
2023-04-11T11:22:29.362Z,19.80
2023-04-11T11:25:10.990Z,19.90
2023-04-11T11:27:42.009Z,19.90
2023-04-11T11:30:20.324Z,20.00
2023-04-11T11:32:54.555Z,20.10
2023-04-11T11:35:26.447Z,20.10
2023-04-11T11:37:57.283Z,20.10
2023-04-11T11:40:28.805Z,20.20
2023-04-11T11:42:58.194Z,20.30
2023-04-11T11:45:30.716Z,20.30
2023-04-11T11:48:00.611Z,20.40
2023-04-11T11:50:35.599Z,20.40
2023-04-11T11:53:18.605Z,20.40
2023-04-11T11:55:50.253Z,20.50
2023-04-11T11:58:22.105Z,20.50
2023-04-11T12:00:54.210Z,20.50
2023-04-11T12:03:32.088Z,20.50
2023-04-11T12:06:04.433Z,20.50
2023-04-11T12:08:36.113Z,20.60
2023-04-11T12:11:12.388Z,20.60
2023-04-11T12:13:48.800Z,20.60
2023-04-11T12:16:22.948Z,20.70
2023-04-11T12:18:51.090Z,20.70
2023-04-11T12:21:23.246Z,20.80
2023-04-11T12:23:56.942Z,20.80
2023-04-11T12:26:26.245Z,20.80
2023-04-11T12:28:56.703Z,20.90
2023-04-11T12:31:30.073Z,20.90
2023-04-11T12:34:01.803Z,20.90
2023-04-11T12:39:04.078Z,21.00
2023-04-11T12:41:32.758Z,21.00
2023-04-11T12:44:03.324Z,21.00
2023-04-11T12:46:36.561Z,21.00
2023-04-11T12:49:09.368Z,21.00
2023-04-11T12:51:41.180Z,21.10
2023-04-11T12:54:16.173Z,21.10
2023-04-11T12:56:46.339Z,21.10
2023-04-11T12:59:17.002Z,21.10
2023-04-11T13:01:44.309Z,21.20
2023-04-11T13:04:15.331Z,21.20
2023-04-11T13:06:48.392Z,21.30
2023-04-11T13:09:19.120Z,21.30
2023-04-11T13:11:51.533Z,21.30
2023-04-11T13:14:22.381Z,21.30
2023-04-11T13:16:54.184Z,21.10
2023-04-11T13:19:29.341Z,21.00
2023-04-11T13:22:00.980Z,20.90
2023-04-11T13:24:30.960Z,20.70
2023-04-11T13:27:10.435Z,20.80
2023-04-11T13:29:39.940Z,20.90
2023-04-11T13:32:10.438Z,20.90
2023-04-11T13:34:43.418Z,21.10
2023-04-11T13:39:45.347Z,21.10
2023-04-11T13:42:16.286Z,21.10
2023-04-11T13:44:44.314Z,21.10
2023-04-11T13:47:15.732Z,21.20
2023-04-11T13:49:47.002Z,21.20
2023-04-11T13:52:20.540Z,21.30
2023-04-11T13:54:59.743Z,21.30
2023-04-11T13:57:31.578Z,21.40
2023-04-11T14:02:32.646Z,21.40
2023-04-11T14:05:04.822Z,21.50
2023-04-11T14:07:33.169Z,21.50
2023-04-11T14:10:02.360Z,21.50
2023-04-11T14:12:32.830Z,21.50
2023-04-11T14:15:04.056Z,21.60
2023-04-11T14:17:35.302Z,21.60
2023-04-11T14:20:10.951Z,21.60
2023-04-11T14:22:41.271Z,21.70
2023-04-11T14:25:13.699Z,21.70
2023-04-11T14:27:46.052Z,21.70
2023-04-11T14:30:17.522Z,21.70
2023-04-11T14:32:48.703Z,21.70
2023-04-11T14:35:33.990Z,21.70
2023-04-11T14:38:06.992Z,21.80
2023-04-11T14:40:34.873Z,21.80
2023-04-11T14:43:04.712Z,21.90
2023-04-11T14:45:35.802Z,21.80
2023-04-11T14:48:06.089Z,21.90
2023-04-11T14:50:37.092Z,21.90
2023-04-11T14:53:11.558Z,21.90
2023-04-11T14:55:46.789Z,22.00
2023-04-11T14:58:16.495Z,22.00
2023-04-11T15:00:47.810Z,22.00
2023-04-11T15:03:19.365Z,22.00
2023-04-11T15:05:51.934Z,22.00
2023-04-11T15:08:23.555Z,22.00
2023-04-11T15:10:56.042Z,22.00
2023-04-11T15:13:23.633Z,22.00
2023-04-11T15:15:57.198Z,21.90
2023-04-11T15:18:32.154Z,21.70
2023-04-11T15:21:02.597Z,21.50
2023-04-11T15:23:34.580Z,21.30
2023-04-11T15:26:06.766Z,21.20
2023-04-11T15:28:37.099Z,21.00
2023-04-11T15:31:11.922Z,20.90
2023-04-11T15:33:43.881Z,20.80
2023-04-11T15:36:14.221Z,20.70
2023-04-11T15:38:48.703Z,20.70
2023-04-11T15:41:19.661Z,20.60
2023-04-11T15:43:50.907Z,20.50
2023-04-11T15:46:20.941Z,20.50
2023-04-11T15:48:51.932Z,20.40
2023-04-11T15:51:22.011Z,20.40
2023-04-11T15:53:53.459Z,20.40
2023-04-11T15:56:24.298Z,20.30
2023-04-11T15:58:55.682Z,20.30
2023-04-11T16:01:28.346Z,20.30
2023-04-11T16:03:56.775Z,20.20
2023-04-11T16:06:28.612Z,20.20
2023-04-11T16:08:57.712Z,20.10
2023-04-11T16:11:29.758Z,20.10
2023-04-11T16:13:58.286Z,20.10
2023-04-11T16:16:31.006Z,20.10
2023-04-11T16:19:04.046Z,20.10
2023-04-11T16:21:34.923Z,20.00
2023-04-11T16:24:06.672Z,20.00
2023-04-11T16:26:38.276Z,20.00
2023-04-11T16:31:51.227Z,19.90
2023-04-11T16:34:20.352Z,19.90
2023-04-11T16:36:51.366Z,19.90
2023-04-11T16:39:22.096Z,19.90
2023-04-11T16:41:55.557Z,19.90
2023-04-11T16:44:25.851Z,19.90
2023-04-11T16:46:56.406Z,19.80
2023-04-11T16:49:27.784Z,19.80
2023-04-11T16:51:59.748Z,19.80
2023-04-11T16:54:31.198Z,19.80
2023-04-11T16:57:05.803Z,19.80
2023-04-11T16:59:34.511Z,19.80
2023-04-11T17:02:05.232Z,19.70
2023-04-11T17:04:33.538Z,19.80
2023-04-11T17:07:06.551Z,19.70
2023-04-11T17:09:37.965Z,19.70
2023-04-11T17:12:08.680Z,19.70
2023-04-11T17:14:40.229Z,19.70
2023-04-11T17:17:10.360Z,19.70
2023-04-11T17:19:39.397Z,19.70
2023-04-11T17:22:10.512Z,19.70
2023-04-11T17:24:41.446Z,19.70
2023-04-11T17:27:17.350Z,19.60
2023-04-11T17:29:47.707Z,19.60
2023-04-11T17:32:19.277Z,19.60
2023-04-11T17:34:50.448Z,19.60
2023-04-11T17:37:22.843Z,19.60
2023-04-11T17:39:51.546Z,19.60
2023-04-11T17:42:21.782Z,19.60
2023-04-11T17:44:58.900Z,19.60
2023-04-11T17:47:35.393Z,19.50
2023-04-11T17:50:08.297Z,19.50
2023-04-11T17:52:44.958Z,19.50
2023-04-11T17:55:15.810Z,19.50
2023-04-11T17:57:54.143Z,19.50
2023-04-11T18:00:29.320Z,19.50
2023-04-11T18:03:03.850Z,19.50
2023-04-11T18:05:37.366Z,19.40
2023-04-11T18:08:07.635Z,19.40
2023-04-11T18:10:38.398Z,19.40
2023-04-11T18:13:08.701Z,19.40
2023-04-11T18:15:40.413Z,19.40
2023-04-11T18:18:17.141Z,19.40
2023-04-11T18:21:17.668Z,19.40
2023-04-11T18:26:28.031Z,19.40
2023-04-11T18:29:04.552Z,19.30
2023-04-11T18:31:38.884Z,19.30
2023-04-11T18:34:11.704Z,19.30
2023-04-11T18:36:41.697Z,19.30
2023-04-11T18:39:11.082Z,19.30
2023-04-11T18:41:43.061Z,19.30
2023-04-11T18:44:13.946Z,19.30
2023-04-11T18:46:46.032Z,19.30
2023-04-11T18:49:18.002Z,19.30
2023-04-11T18:51:51.122Z,19.30
2023-04-11T18:54:25.674Z,19.30
2023-04-11T18:59:24.878Z,19.30
2023-04-11T19:01:57.204Z,19.20
2023-04-11T19:04:28.230Z,19.20
2023-04-11T19:07:00.859Z,19.20
2023-04-11T19:09:32.806Z,19.20
2023-04-11T19:12:01.474Z,19.20
2023-04-11T19:14:29.530Z,19.20
2023-04-11T19:16:59.334Z,19.20
2023-04-11T19:19:29.740Z,19.20
2023-04-11T19:21:59.790Z,19.20
2023-04-11T19:24:32.653Z,19.20
2023-04-11T19:27:05.756Z,19.20
2023-04-11T19:29:34.621Z,19.20
2023-04-11T19:32:07.053Z,19.20
2023-04-11T19:34:38.652Z,19.20
2023-04-11T19:37:11.426Z,19.10
2023-04-11T19:39:40.574Z,19.20
2023-04-11T19:42:10.196Z,19.10
2023-04-11T19:44:49.593Z,19.10
2023-04-11T19:47:22.071Z,19.10
2023-04-11T19:49:53.925Z,19.10
2023-04-11T19:52:24.933Z,19.10
2023-04-11T19:54:56.015Z,19.10
2023-04-11T19:57:26.422Z,19.10
2023-04-11T19:59:55.755Z,19.10
2023-04-11T20:02:29.338Z,19.10
2023-04-11T20:05:00.567Z,19.10
2023-04-11T20:07:32.045Z,19.10
2023-04-11T20:10:01.914Z,19.10
2023-04-11T20:12:32.205Z,19.10
2023-04-11T20:15:02.306Z,19.10
2023-04-11T20:17:43.747Z,19.10
2023-04-11T20:20:15.770Z,19.10
2023-04-11T20:22:47.458Z,19.10
2023-04-11T20:25:19.379Z,19.10
2023-04-11T20:27:47.896Z,19.00
2023-04-11T20:30:17.386Z,19.00
2023-04-11T20:32:47.110Z,19.00
2023-04-11T20:35:16.711Z,19.10
2023-04-11T20:37:50.476Z,19.00
2023-04-11T20:40:27.259Z,19.00
2023-04-11T20:42:59.960Z,19.00
2023-04-11T20:45:30.583Z,19.00
2023-04-11T20:50:50.324Z,19.10
2023-04-11T20:53:21.946Z,19.10
2023-04-11T20:55:52.710Z,19.20
2023-04-11T20:58:21.277Z,19.10
2023-04-11T21:00:53.092Z,19.20
2023-04-11T21:06:09.586Z,19.40
2023-04-11T21:08:43.583Z,19.50
2023-04-11T21:11:10.488Z,19.50
2023-04-11T21:13:42.008Z,19.50
2023-04-11T21:16:15.238Z,19.60
2023-04-11T21:18:46.822Z,19.60
2023-04-11T21:21:18.962Z,19.60
2023-04-11T21:23:46.058Z,19.60
2023-04-11T21:26:15.687Z,19.70
2023-04-11T21:28:46.284Z,19.70
2023-04-11T21:31:15.558Z,19.70
2023-04-11T21:33:49.202Z,19.80
2023-04-11T21:36:21.140Z,19.80
2023-04-11T21:38:52.831Z,19.70
2023-04-11T21:41:19.788Z,19.70
2023-04-11T21:43:49.723Z,19.70
2023-04-11T21:46:17.546Z,19.70
2023-04-11T21:48:46.391Z,19.60
2023-04-11T21:51:20.080Z,19.60
2023-04-11T21:53:50.006Z,19.60
2023-04-11T21:56:16.961Z,19.60
2023-04-11T21:58:48.936Z,19.50
2023-04-11T22:01:23.630Z,19.50
2023-04-11T22:03:57.107Z,19.50
2023-04-11T22:06:29.638Z,19.40
2023-04-11T22:09:00.574Z,19.40
2023-04-11T22:11:31.927Z,19.40
2023-04-11T22:14:03.850Z,19.40
2023-04-11T22:16:37.175Z,19.40
2023-04-11T22:19:11.025Z,19.30
2023-04-11T22:21:39.448Z,19.30
2023-04-11T22:24:11.478Z,19.20
2023-04-11T22:29:27.403Z,19.20
2023-04-11T22:32:08.393Z,19.20
2023-04-11T22:34:38.877Z,19.10
2023-04-11T22:37:09.452Z,19.10
2023-04-11T22:39:41.069Z,19.10
2023-04-11T22:42:10.695Z,19.10
2023-04-11T22:44:40.915Z,19.10
2023-04-11T22:47:29.333Z,19.00
2023-04-11T22:49:58.433Z,19.00
2023-04-11T22:52:32.929Z,19.00
2023-04-11T22:55:04.388Z,19.00
2023-04-11T22:57:36.956Z,18.90
2023-04-11T23:00:09.886Z,18.90
2023-04-11T23:02:43.182Z,18.90
2023-04-11T23:05:13.987Z,18.80
2023-04-11T23:07:45.698Z,18.90
2023-04-11T23:10:16.389Z,18.80
2023-04-11T23:12:47.802Z,18.80
2023-04-11T23:15:19.075Z,18.80
2023-04-11T23:17:49.274Z,18.80
2023-04-11T23:20:25.231Z,18.80
2023-04-11T23:22:58.149Z,18.80
2023-04-11T23:25:26.787Z,18.80
2023-04-11T23:28:15.115Z,18.70
2023-04-11T23:30:45.240Z,18.70
2023-04-11T23:33:16.468Z,18.70
2023-04-11T23:35:48.401Z,18.70
2023-04-11T23:38:16.651Z,18.70
2023-04-11T23:40:48.498Z,18.70
2023-04-11T23:43:18.970Z,18.70
2023-04-11T23:45:53.158Z,18.70
2023-04-11T23:48:25.602Z,18.70
2023-04-11T23:50:59.347Z,18.70
2023-04-11T23:53:36.233Z,18.70
2023-04-11T23:56:06.209Z,18.60
2023-04-11T23:58:38.487Z,18.60
